Terminal Aerodrome Forecast
Issued by NWS

Home | Current Version | Previous Version | Text Only | Print | Product List | Glossary On
Versions: 1 2 3 4 5 6 7 8 9 10 11 12 13 14 15 16
603
FTUS42 KMHX 011742
TAFPGV
TAF
KPGV 011742Z 0118/0218 20006KT P6SM BKN100
     FM012300 00000KT P6SM BKN100
     FM020100 00000KT P6SM SCT100
     FM020600 00000KT P6SM SCT040
     FM021100 00000KT P6SM BKN040
     FM021300 00000KT P6SM BKN100
     FM021600 00000KT P6SM SCT100
      AMD LTD TO CLD VIS AND WIND=

USA.gov is the U.S. government's official web portal to all federal, state and local government web resources and services.